Matagorda, Texas
Current Conditions -  °F | °C
As of 11:53 PM on Monday 20 Oct 2014 (Local Time) from KPSX Reporting Station
Clear Clear  
Wind Chill: 69°   Ceiling: Unl
Heat Index: 69°   Visibility: 8mi
Dew Point: 66°   Wind: 7mph
Humidity: 90%   Direction: 60°ENE
Pressure: 30"   Gusts: NA
Location:  28.69°N, 95.97°W
Report Text: KPSX 210453Z AUTO 06006KT 8SM CLR 21/19 A3000 RMK AO2 SLP157 T02060189
Loading
Personal Weather Stations






























Interactive Weather Map New forecast layout! Learn more

10-Day Weather Forecast

Advertisements
Track Severe Weather on mobile